Farmington, WA (99104)

11:14 PM PST on January 29, 2015 (GMT -0800)
KWAGARFI3 | Change Station
CLOSE
Current Station
Personal Weather Station
Location: Garfield, WA
Elevation: 2520 ft
Nearby Weather Stations
Active Advisory: Dense Fog Advisory

Elev 2520 ft 47.01 °N, 117.15 °W | Updated 4 minutes ago

Fog
Fog
33.4 °F
Feels Like 33 °F
N
0.0
Wind Variable Wind from SSW
Gusts 0.0 mph

Today
High -- | Low -- °F
--% Chance of Precip.
Yesterday
High -- | Low -- °F
Precip. -- in
7:17 AM 4:46 PM
Waxing Gibbous, 80% visible
Pressure 30.43 in
Visibility 0.5 miles
Clouds
Windchill 33 °F
Dew Point 29 °F
Humidity 84%
Rainfall 0.00 in
Snow Depth Not available.
UV Not available.
Pollen .10 out of 12
Air Quality Not available.
Flu Activity Not available.
METAR KPUW 300653Z AUTO 00000KT 1/2SM FG VV002 00/00 A3036 RMK AO2 SLP302 T00000000

More Conditions Fewer Conditions

Pressure 30.43 in
Visibility 0.5 miles
Clouds
Windchill 33 °F
Dew Point 29 °F
Humidity 84%
Rainfall 0.00 in
Snow Depth Not available.
UV Not available.
Pollen .10 out of 12
Air Quality Not available.
Flu Activity Not available.
METAR KPUW 300653Z AUTO 00000KT 1/2SM FG VV002 00/00 A3036 RMK AO2 SLP302 T00000000

More Conditions Fewer Conditions

Nowcast | as of 8:17 PM PST on January 29, 2015

Through Friday morning...areas of dense fog will reduce visibility to a quarter mile at times across portions of the Washington and Idaho Palouse including the us95 and 195 corridors. Temperatures are starting to cool near freezing and slick roads will be possible after midnight and through the Friday morning commute. Motorists should prepare for rapid fluctuations in visibility and slick conditions in the morning. Locations include but are not limited to Colfax...Pullman...Uniontown...Genesee...Moscow...and Potlatch.

×

10-Day Weather Forecast

Almanac

Astronomy

Jan. 29, 2015 Rise Set
Actual Time
Civil Twilight
Nautical Twilight
Astronomical Twilight
Moon
Length of Visible Light
Length of Day
Tomorrow will be .
, % of the Moon is Illuminated

Today's Extremes

State Highs State Lows

Community

WunderPhotos

Upload Photos

1,791,725 photos uploaded!

WunderBlogs® & News

Nearby

Air Quality

  Air Quality AQ Index Pollutant
Not available.

Snow Depth

Station Depth Elevation

Earthquake Activity

City Distance Mag. Time & Date
Minimum magnitude displayed is 2.5.

Coastal Water Temperatures

Place Temperature

Nearby Weather Stations